createdAt,value
2022-11-28T00:02:20.112Z,22.93
2022-11-28T00:06:23.303Z,23.13
2022-11-28T00:10:26.119Z,24.60
2022-11-28T00:14:28.844Z,22.50
2022-11-28T00:18:33.083Z,20.03
2022-11-28T00:22:35.742Z,22.57
2022-11-28T00:26:39.923Z,19.57
2022-11-28T00:30:42.592Z,24.00
2022-11-28T00:34:47.093Z,21.50
2022-11-28T00:38:51.280Z,20.63
2022-11-28T00:42:54.199Z,23.73
2022-11-28T00:46:57.095Z,20.27
2022-11-28T00:51:08.335Z,20.97
2022-11-28T00:55:11.034Z,22.87
2022-11-28T00:59:13.759Z,22.07
2022-11-28T01:03:16.434Z,22.97
2022-11-28T01:07:20.489Z,23.03
2022-11-28T01:11:24.109Z,23.00
2022-11-28T01:15:27.033Z,22.30
2022-11-28T01:19:29.679Z,24.77
2022-11-28T01:23:34.099Z,24.13
2022-11-28T01:27:36.762Z,24.23
2022-11-28T01:31:39.646Z,22.93
2022-11-28T01:35:42.379Z,21.63
2022-11-28T01:39:46.658Z,22.83
2022-11-28T01:44:07.615Z,22.60
2022-11-28T01:48:13.110Z,21.97
2022-11-28T01:52:17.675Z,22.70
2022-11-28T01:56:24.089Z,23.10
2022-11-28T02:00:26.979Z,24.60
2022-11-28T02:04:29.682Z,24.03
2022-11-28T02:08:34.118Z,20.83
2022-11-28T02:12:51.726Z,23.43
2022-11-28T02:17:04.618Z,26.00
2022-11-28T02:21:25.142Z,22.97
2022-11-28T02:25:57.385Z,22.13
2022-11-28T02:30:16.184Z,21.13
2022-11-28T02:34:26.179Z,22.03
2022-11-28T02:38:40.347Z,23.20
2022-11-28T02:42:51.471Z,21.43
2022-11-28T02:46:59.891Z,21.70
2022-11-28T02:51:08.835Z,22.07
2022-11-28T02:55:12.567Z,19.60
2022-11-28T02:59:32.591Z,23.00
2022-11-28T03:03:44.067Z,20.50
2022-11-28T03:07:59.195Z,19.47
2022-11-28T03:12:11.068Z,21.30
2022-11-28T03:16:20.015Z,19.27
2022-11-28T03:20:25.918Z,21.17
2022-11-28T03:24:35.835Z,19.90
2022-11-28T03:28:43.991Z,22.10
2022-11-28T03:32:49.129Z,25.10
2022-11-28T03:36:54.024Z,21.83
2022-11-28T03:41:01.113Z,18.53
2022-11-28T03:45:07.094Z,20.33
2022-11-28T03:49:10.393Z,18.37
2022-11-28T03:53:17.650Z,22.70
2022-11-28T03:57:26.206Z,19.53
2022-11-28T04:01:33.175Z,21.43
2022-11-28T04:05:41.330Z,20.63
2022-11-28T04:09:48.192Z,19.63
2022-11-28T04:13:55.162Z,19.50
2022-11-28T04:18:00.589Z,16.67
2022-11-28T04:22:05.679Z,18.97
2022-11-28T04:26:12.092Z,18.63
2022-11-28T04:30:17.133Z,20.10
2022-11-28T04:34:21.909Z,20.07
2022-11-28T04:38:26.398Z,16.83
2022-11-28T04:42:33.618Z,19.00
2022-11-28T04:46:41.559Z,17.87
2022-11-28T04:50:47.700Z,20.17
2022-11-28T04:54:57.168Z,19.17
2022-11-28T04:59:00.702Z,19.60
2022-11-28T05:03:06.234Z,18.13
2022-11-28T05:07:10.040Z,20.80
2022-11-28T05:11:12.697Z,21.63
2022-11-28T05:15:18.954Z,20.87
2022-11-28T05:19:23.372Z,22.33
2022-11-28T05:23:26.308Z,22.13
2022-11-28T05:27:28.925Z,19.87
2022-11-28T05:31:31.791Z,19.40
2022-11-28T05:35:36.035Z,21.30
2022-11-28T05:39:38.705Z,20.97
2022-11-28T05:43:41.634Z,21.27
2022-11-28T05:47:44.317Z,20.37
2022-11-28T05:51:48.754Z,20.00
2022-11-28T05:55:51.430Z,22.07
2022-11-28T05:59:54.450Z,19.83
2022-11-28T06:04:00.690Z,22.80
2022-11-28T06:08:05.230Z,18.70
2022-11-28T06:12:08.516Z,19.60
2022-11-28T06:16:12.555Z,21.40
2022-11-28T06:20:15.457Z,20.03
2022-11-28T06:24:23.850Z,19.37
2022-11-28T06:28:27.240Z,21.43
2022-11-28T06:32:29.913Z,22.47
2022-11-28T06:36:32.590Z,23.40
2022-11-28T06:40:39.089Z,23.57
2022-11-28T06:44:41.810Z,22.67
2022-11-28T06:48:44.791Z,21.90
2022-11-28T06:52:47.497Z,19.17
2022-11-28T06:56:51.554Z,19.63
2022-11-28T07:00:54.287Z,21.43
2022-11-28T07:04:56.993Z,22.67
2022-11-28T07:09:00.194Z,22.40
2022-11-28T07:13:05.681Z,20.13
2022-11-28T07:17:08.573Z,19.27
2022-11-28T07:21:11.548Z,21.47
2022-11-28T07:25:14.832Z,21.80
2022-11-28T07:29:19.533Z,21.27
2022-11-28T07:33:22.266Z,21.43
2022-11-28T07:37:25.079Z,21.03
2022-11-28T07:41:28.737Z,22.63
2022-11-28T07:45:47.480Z,20.90
2022-11-28T07:49:55.320Z,18.80
2022-11-28T07:53:58.549Z,24.90
2022-11-28T07:58:01.199Z,21.47
2022-11-28T08:02:05.939Z,21.17
2022-11-28T08:06:09.262Z,20.50
2022-11-28T08:10:12.083Z,21.10
2022-11-28T08:14:15.185Z,23.23
2022-11-28T08:18:19.439Z,23.43
2022-11-28T08:22:22.709Z,21.70
2022-11-28T08:26:30.678Z,20.40
2022-11-28T08:30:34.142Z,21.53
2022-11-28T08:34:38.481Z,21.10
2022-11-28T08:38:46.983Z,19.93
2022-11-28T08:42:56.210Z,21.87
2022-11-28T08:46:58.930Z,20.47
2022-11-28T08:51:03.506Z,19.40
2022-11-28T08:55:07.022Z,21.00
2022-11-28T08:59:10.900Z,22.10
2022-11-28T09:03:15.618Z,21.33
2022-11-28T09:07:20.665Z,18.33
2022-11-28T09:11:24.072Z,21.07
2022-11-28T09:15:26.730Z,20.57
2022-11-28T09:19:29.468Z,20.90
2022-11-28T09:23:33.781Z,21.83
2022-11-28T09:27:36.485Z,24.23
2022-11-28T09:31:41.991Z,20.90
2022-11-28T09:35:48.524Z,20.80
2022-11-28T09:40:11.933Z,20.60
2022-11-28T09:44:21.408Z,21.77
2022-11-28T09:48:27.976Z,21.10
2022-11-28T09:52:34.122Z,20.20
2022-11-28T09:56:40.844Z,20.60
2022-11-28T10:00:50.307Z,20.77
2022-11-28T10:05:04.790Z,23.90
2022-11-28T10:09:17.774Z,20.70
2022-11-28T10:13:41.272Z,21.57
2022-11-28T10:17:55.520Z,22.13
2022-11-28T10:22:01.505Z,20.23
2022-11-28T10:26:07.515Z,21.93
2022-11-28T10:30:17.830Z,21.03
2022-11-28T10:34:26.002Z,21.20
2022-11-28T10:38:30.266Z,19.73
2022-11-28T10:42:37.955Z,20.10
2022-11-28T10:46:52.123Z,20.37
2022-11-28T10:51:02.370Z,20.10
2022-11-28T10:55:24.128Z,22.13
2022-11-28T10:59:36.011Z,22.90
2022-11-28T11:03:41.460Z,21.20
2022-11-28T11:07:48.478Z,22.47
2022-11-28T11:11:55.851Z,20.17
2022-11-28T11:16:00.896Z,19.50
2022-11-28T11:20:24.756Z,20.83
2022-11-28T11:24:27.626Z,20.00
2022-11-28T11:28:42.634Z,22.17
2022-11-28T11:32:51.376Z,21.80
2022-11-28T11:37:19.508Z,20.80
2022-11-28T11:41:30.378Z,20.47
2022-11-28T11:45:34.349Z,23.90
2022-11-28T11:49:38.426Z,20.90
2022-11-28T11:53:42.814Z,20.77
2022-11-28T11:57:48.790Z,22.03
2022-11-28T12:02:00.977Z,20.60
2022-11-28T12:06:14.258Z,19.93
2022-11-28T12:10:21.943Z,22.23
2022-11-28T12:14:30.124Z,21.17
2022-11-28T12:18:41.069Z,20.53
2022-11-28T12:22:49.579Z,18.80
2022-11-28T12:27:01.871Z,21.70
2022-11-28T12:31:13.797Z,24.27
2022-11-28T12:35:25.668Z,19.53
2022-11-28T12:39:37.292Z,19.60
2022-11-28T12:43:52.326Z,20.40
2022-11-28T12:48:03.904Z,19.27
2022-11-28T12:52:16.649Z,19.53
2022-11-28T12:56:30.397Z,22.13
2022-11-28T13:00:34.755Z,20.77
2022-11-28T13:04:54.345Z,20.67
2022-11-28T13:09:04.803Z,21.27
2022-11-28T13:13:10.557Z,20.73
2022-11-28T13:17:23.227Z,18.30
2022-11-28T13:21:33.297Z,18.43
2022-11-28T13:25:40.267Z,18.93
2022-11-28T13:29:47.645Z,19.67
2022-11-28T13:33:53.499Z,21.93
2022-11-28T13:46:56.755Z,23.80
2022-11-28T13:51:02.319Z,20.50
2022-11-28T13:55:05.762Z,21.70
2022-11-28T13:59:18.256Z,22.20
2022-11-28T14:03:21.547Z,24.23
2022-11-28T14:07:30.192Z,23.73
2022-11-28T14:11:47.462Z,24.73
2022-11-28T14:15:59.170Z,26.33
2022-11-28T14:20:13.460Z,21.63
2022-11-28T14:24:23.326Z,23.67
2022-11-28T14:28:27.625Z,25.83
2022-11-28T14:32:35.697Z,20.93
2022-11-28T14:36:42.014Z,19.43
2022-11-28T14:41:08.922Z,20.30
2022-11-28T14:45:40.583Z,22.17
2022-11-28T14:49:43.635Z,20.63
2022-11-28T14:53:48.157Z,24.57
2022-11-28T14:57:57.861Z,23.70
2022-11-28T15:02:04.811Z,24.17
2022-11-28T15:06:17.264Z,21.87
2022-11-28T15:10:24.476Z,25.10
2022-11-28T15:14:30.289Z,23.07
2022-11-28T15:18:34.314Z,26.87
2022-11-28T15:22:40.951Z,23.40
2022-11-28T15:26:44.663Z,26.53
2022-11-28T15:30:51.147Z,27.03
2022-11-28T15:34:56.790Z,27.00
2022-11-28T15:38:59.816Z,27.63
2022-11-28T15:43:11.084Z,24.30
2022-11-28T15:47:19.924Z,30.97
2022-11-28T15:51:28.059Z,26.17
2022-11-28T15:55:32.261Z,24.40
2022-11-28T15:59:35.364Z,26.77
2022-11-28T16:03:45.121Z,26.27
2022-11-28T16:07:48.823Z,25.20
2022-11-28T16:11:54.066Z,23.80
2022-11-28T16:15:58.393Z,23.37
2022-11-28T16:20:03.726Z,24.67
2022-11-28T16:24:17.814Z,24.37
2022-11-28T16:28:32.546Z,25.90
2022-11-28T16:32:38.183Z,25.83
2022-11-28T16:36:44.111Z,24.37
2022-11-28T16:40:46.886Z,27.73
2022-11-28T16:44:49.991Z,26.07
2022-11-28T16:48:55.755Z,29.17
2022-11-28T16:52:59.966Z,28.60
2022-11-28T16:57:10.804Z,29.00
2022-11-28T17:01:13.517Z,30.17
2022-11-28T17:05:16.619Z,28.17
2022-11-28T17:09:20.813Z,29.17
2022-11-28T17:13:23.438Z,27.07
2022-11-28T17:17:26.536Z,29.60
2022-11-28T17:21:34.238Z,28.03
2022-11-28T17:25:38.276Z,29.13
2022-11-28T17:29:41.331Z,27.47
2022-11-28T17:33:45.012Z,28.77
2022-11-28T17:37:47.905Z,26.87
2022-11-28T17:41:52.395Z,25.33
2022-11-28T17:45:56.273Z,26.77
2022-11-28T17:49:58.974Z,26.87
2022-11-28T17:54:01.658Z,28.00
2022-11-28T17:58:06.036Z,28.03
2022-11-28T18:02:11.197Z,25.50
2022-11-28T18:06:17.683Z,28.73
2022-11-28T18:10:20.418Z,41.10
2022-11-28T18:14:24.404Z,25.97
2022-11-28T18:18:27.090Z,29.07
2022-11-28T18:22:29.733Z,29.43
2022-11-28T18:26:32.410Z,31.10
2022-11-28T18:30:36.886Z,28.77
2022-11-28T18:34:39.533Z,30.20
2022-11-28T18:38:44.693Z,27.20
2022-11-28T18:42:47.537Z,24.90
2022-11-28T18:46:51.804Z,26.87
2022-11-28T18:50:54.449Z,30.30
2022-11-28T18:54:57.124Z,25.30
2022-11-28T18:59:00.014Z,30.27
2022-11-28T19:03:04.377Z,37.63
2022-11-28T19:07:07.095Z,26.07
2022-11-28T19:11:13.105Z,20.33
2022-11-28T19:15:15.891Z,24.03
2022-11-28T19:19:19.900Z,22.97
2022-11-28T19:23:22.616Z,26.27
2022-11-28T19:27:25.700Z,23.80
2022-11-28T19:31:30.181Z,24.77
2022-11-28T19:35:35.659Z,25.77
2022-11-28T19:39:38.341Z,25.77
2022-11-28T19:43:41.682Z,26.80
2022-11-28T19:47:46.467Z,24.97
2022-11-28T19:51:51.256Z,25.30
2022-11-28T19:55:55.024Z,22.13
2022-11-28T19:59:58.534Z,24.33
2022-11-28T20:04:01.190Z,23.33
2022-11-28T20:08:06.120Z,29.77
2022-11-28T20:12:08.909Z,25.80
2022-11-28T20:16:13.274Z,24.13
2022-11-28T20:20:16.073Z,23.37
2022-11-28T20:24:20.464Z,23.20
2022-11-28T20:28:23.164Z,22.20
2022-11-28T20:32:25.850Z,26.40
2022-11-28T20:36:30.663Z,23.60
2022-11-28T20:40:34.720Z,25.10
2022-11-28T20:44:37.733Z,27.57
2022-11-28T20:48:41.204Z,21.70
2022-11-28T20:52:43.826Z,23.20
2022-11-28T21:01:14.454Z,25.30
2022-11-28T21:05:17.194Z,25.97
2022-11-28T21:09:20.570Z,24.63
2022-11-28T21:13:25.121Z,22.70
2022-11-28T21:17:27.746Z,20.80
2022-11-28T21:21:32.506Z,21.80
2022-11-28T21:25:36.729Z,21.57
2022-11-28T21:29:43.010Z,20.93
2022-11-28T21:33:48.553Z,17.57
2022-11-28T21:37:51.240Z,20.77
2022-11-28T21:41:53.902Z,19.30
2022-11-28T21:46:02.087Z,17.57
2022-11-28T21:50:05.324Z,18.37
2022-11-28T21:54:07.984Z,19.53
2022-11-28T21:58:10.861Z,16.83
2022-11-28T22:02:15.799Z,18.47
2022-11-28T22:06:20.645Z,22.77
2022-11-28T22:10:23.320Z,18.87
2022-11-28T22:14:26.030Z,19.83
2022-11-28T22:18:30.971Z,16.50
2022-11-28T22:22:33.584Z,17.90
2022-11-28T22:26:36.295Z,19.17
2022-11-28T22:30:39.303Z,20.40
2022-11-28T22:34:43.762Z,22.60
2022-11-28T22:38:47.331Z,22.80
2022-11-28T22:42:55.533Z,20.37
2022-11-28T22:46:58.495Z,20.50
2022-11-28T22:51:07.248Z,20.37
2022-11-28T22:55:10.421Z,22.93
2022-11-28T22:59:13.888Z,20.63
2022-11-28T23:03:16.646Z,24.20
2022-11-28T23:07:20.908Z,18.67
2022-11-28T23:11:25.570Z,21.07
2022-11-28T23:15:28.736Z,20.50
2022-11-28T23:19:32.076Z,21.63
2022-11-28T23:23:37.313Z,22.23
2022-11-28T23:27:40.150Z,21.83
2022-11-28T23:31:43.900Z,19.43
2022-11-28T23:35:46.585Z,24.23
2022-11-28T23:39:50.627Z,23.20
2022-11-28T23:43:53.721Z,21.57
2022-11-28T23:47:56.370Z,21.43
2022-11-28T23:51:59.342Z,20.47
2022-11-28T23:56:08.077Z,21.57
